createdAt,value
2019-02-21T00:01:20.501Z,94.10
2019-02-21T00:03:50.636Z,94.20
2019-02-21T00:06:20.010Z,94.30
2019-02-21T00:08:49.455Z,94.30
2019-02-21T00:11:19.302Z,94.20
2019-02-21T00:13:48.722Z,94.20
2019-02-21T00:16:18.223Z,93.90
2019-02-21T00:18:47.968Z,93.70
2019-02-21T00:21:17.538Z,93.70
2019-02-21T00:23:47.057Z,93.80
2019-02-21T00:26:16.462Z,93.90
2019-02-21T00:28:45.891Z,94.00
2019-02-21T00:31:17.110Z,94.00
2019-02-21T00:33:46.816Z,94.00
2019-02-21T00:36:16.329Z,93.80
2019-02-21T00:38:45.664Z,93.70
2019-02-21T00:41:17.000Z,93.70
2019-02-21T00:43:46.367Z,93.80
2019-02-21T00:46:17.753Z,93.80
2019-02-21T00:48:47.324Z,93.60
2019-02-21T00:51:18.124Z,93.70
2019-02-21T00:53:51.742Z,93.70
2019-02-21T00:56:21.118Z,93.60
2019-02-21T00:58:52.281Z,93.60
2019-02-21T01:01:22.319Z,93.60
2019-02-21T01:03:51.760Z,93.50
2019-02-21T01:06:21.400Z,93.50
2019-02-21T01:08:50.786Z,93.50
2019-02-21T01:11:20.251Z,93.60
2019-02-21T01:13:49.657Z,93.70
2019-02-21T01:16:19.556Z,94.30
2019-02-21T01:18:48.974Z,94.60
2019-02-21T01:21:18.693Z,95.20
2019-02-21T01:23:54.950Z,95.40
2019-02-21T01:26:24.476Z,95.10
2019-02-21T01:28:53.855Z,95.20
2019-02-21T01:31:23.597Z,95.00
2019-02-21T01:33:57.546Z,94.90
2019-02-21T01:36:28.679Z,94.70
2019-02-21T01:38:58.158Z,94.60
2019-02-21T01:41:30.938Z,94.40
2019-02-21T01:44:00.549Z,94.30
2019-02-21T01:46:31.486Z,94.10
2019-02-21T01:49:01.408Z,93.90
2019-02-21T01:51:34.864Z,93.90
2019-02-21T01:54:07.438Z,94.00
2019-02-21T01:56:39.796Z,94.00
2019-02-21T01:59:09.348Z,94.00
2019-02-21T02:01:39.059Z,94.30
2019-02-21T02:04:14.527Z,94.40
2019-02-21T02:06:43.919Z,94.10
2019-02-21T02:09:16.401Z,94.10
2019-02-21T02:11:47.715Z,94.00
2019-02-21T02:14:22.608Z,94.00
2019-02-21T02:16:54.836Z,94.00
2019-02-21T02:19:44.948Z,93.90
2019-02-21T02:22:14.365Z,94.00
2019-02-21T02:24:46.641Z,94.00
2019-02-21T02:27:18.959Z,94.20
2019-02-21T02:29:48.325Z,94.40
2019-02-21T02:32:18.003Z,94.20
2019-02-21T02:34:49.013Z,94.20
2019-02-21T02:37:18.437Z,94.10
2019-02-21T02:39:52.529Z,94.00
2019-02-21T02:42:21.893Z,94.10
2019-02-21T02:44:51.403Z,94.00
2019-02-21T02:47:21.040Z,93.90
2019-02-21T02:49:53.622Z,93.90
2019-02-21T02:52:24.204Z,93.90
2019-02-21T02:54:53.759Z,93.90
2019-02-21T02:57:23.145Z,94.00
2019-02-21T03:00:13.042Z,94.10
2019-02-21T03:02:42.620Z,93.90
2019-02-21T03:05:12.141Z,93.90
2019-02-21T03:07:43.841Z,93.90
2019-02-21T03:10:14.467Z,93.90
2019-02-21T03:12:48.868Z,93.70
2019-02-21T03:15:18.479Z,93.70
2019-02-21T03:17:47.880Z,93.70
2019-02-21T03:20:17.283Z,93.70
2019-02-21T03:22:46.681Z,93.70
2019-02-21T03:25:16.192Z,93.90
2019-02-21T03:27:46.024Z,94.40
2019-02-21T03:30:15.440Z,94.90
2019-02-21T03:32:45.297Z,94.90
2019-02-21T03:35:14.746Z,94.80
2019-02-21T03:37:46.245Z,95.50
2019-02-21T03:40:15.982Z,95.90
2019-02-21T03:42:45.407Z,96.10
2019-02-21T03:45:15.355Z,96.30
2019-02-21T03:47:44.760Z,95.90
2019-02-21T03:50:14.598Z,95.90
2019-02-21T03:52:44.018Z,96.00
2019-02-21T03:55:13.483Z,96.20
2019-02-21T03:57:43.057Z,96.10
2019-02-21T04:00:12.503Z,96.10
2019-02-21T04:02:42.001Z,96.30
2019-02-21T04:05:11.394Z,96.40
2019-02-21T04:07:41.160Z,96.40
2019-02-21T04:10:10.502Z,97.10
2019-02-21T04:12:40.273Z,97.90
2019-02-21T04:15:11.279Z,97.50
2019-02-21T04:17:40.997Z,97.20
2019-02-21T04:20:10.346Z,97.00
2019-02-21T04:22:39.823Z,97.10
2019-02-21T04:25:09.260Z,96.90
2019-02-21T04:27:38.863Z,96.60
2019-02-21T04:30:08.333Z,96.90
2019-02-21T04:32:37.949Z,96.70
2019-02-21T04:35:07.453Z,96.90
2019-02-21T04:37:37.061Z,97.30
2019-02-21T04:40:07.139Z,97.20
2019-02-21T04:42:36.528Z,97.00
2019-02-21T04:45:06.577Z,96.70
2019-02-21T04:47:35.949Z,96.70
2019-02-21T04:50:05.805Z,97.10
2019-02-21T04:52:35.255Z,97.00
2019-02-21T04:55:04.627Z,96.80
2019-02-21T04:57:34.481Z,97.10
2019-02-21T05:00:04.219Z,97.50
2019-02-21T05:02:33.981Z,97.30
2019-02-21T05:05:03.449Z,97.10
2019-02-21T05:07:33.322Z,97.60
2019-02-21T05:10:02.741Z,98.00
2019-02-21T05:12:32.121Z,97.90
2019-02-21T05:15:02.109Z,97.90
2019-02-21T05:17:31.845Z,97.90
2019-02-21T05:20:01.410Z,97.80
2019-02-21T05:22:31.047Z,97.60
2019-02-21T05:25:01.538Z,97.80
2019-02-21T05:27:34.586Z,97.50
2019-02-21T05:30:05.329Z,97.50
2019-02-21T05:32:42.216Z,97.90
2019-02-21T05:35:17.232Z,98.20
2019-02-21T05:38:23.624Z,98.30
2019-02-21T05:41:14.788Z,98.70
2019-02-21T05:44:09.356Z,98.30
2019-02-21T05:47:00.614Z,98.50
2019-02-21T05:49:46.942Z,98.50
2019-02-21T05:52:37.267Z,98.90
2019-02-21T05:55:12.642Z,98.60
2019-02-21T05:58:08.586Z,98.80
2019-02-21T06:00:49.361Z,98.50
2019-02-21T06:03:46.864Z,98.20
2019-02-21T06:06:53.504Z,98.60
2019-02-21T06:09:35.917Z,97.90
2019-02-21T06:12:14.656Z,98.10
2019-02-21T06:14:50.069Z,98.00
2019-02-21T06:17:34.748Z,97.80
2019-02-21T06:20:22.423Z,97.60
2019-02-21T06:23:19.995Z,97.40
2019-02-21T06:25:59.343Z,97.20
2019-02-21T06:28:36.353Z,97.30
2019-02-21T06:31:09.505Z,97.40
2019-02-21T06:33:39.179Z,97.50
2019-02-21T06:36:08.613Z,97.40
2019-02-21T06:38:39.087Z,97.40
2019-02-21T06:41:08.755Z,97.20
2019-02-21T06:43:38.343Z,97.10
2019-02-21T06:46:07.953Z,97.20
2019-02-21T06:48:37.617Z,97.10
2019-02-21T06:51:07.848Z,96.80
2019-02-21T06:53:38.984Z,96.60
2019-02-21T06:56:08.572Z,96.60
2019-02-21T06:58:38.120Z,96.40
2019-02-21T07:01:07.583Z,96.30
2019-02-21T07:03:37.076Z,96.60
2019-02-21T07:06:06.839Z,96.70
2019-02-21T07:08:36.370Z,96.70
2019-02-21T07:11:06.682Z,96.80
2019-02-21T07:13:36.634Z,96.60
2019-02-21T07:16:06.142Z,96.50
2019-02-21T07:18:35.646Z,96.70
2019-02-21T07:21:05.305Z,96.70
2019-02-21T07:23:43.110Z,96.80
2019-02-21T07:26:14.868Z,97.20
2019-02-21T07:28:44.460Z,97.80
2019-02-21T07:31:14.006Z,97.70
2019-02-21T07:33:43.410Z,98.20
2019-02-21T07:36:13.127Z,98.20
2019-02-21T07:38:42.588Z,97.80
2019-02-21T07:41:12.092Z,97.50
2019-02-21T07:43:41.503Z,97.20
2019-02-21T07:46:11.307Z,97.00
2019-02-21T07:48:40.778Z,96.80
2019-02-21T07:51:10.170Z,96.60
2019-02-21T07:53:39.720Z,96.50
2019-02-21T07:56:09.451Z,96.40
2019-02-21T07:58:39.692Z,96.30
2019-02-21T08:01:09.410Z,96.60
2019-02-21T08:03:44.306Z,96.90
2019-02-21T08:06:10.862Z,96.90
2019-02-21T08:08:40.373Z,97.30
2019-02-21T08:11:10.232Z,97.20
2019-02-21T08:13:42.749Z,97.40
2019-02-21T08:16:12.686Z,97.30
2019-02-21T08:18:42.118Z,97.20
2019-02-21T08:21:14.865Z,97.10
2019-02-21T08:23:50.471Z,97.00
2019-02-21T08:26:15.734Z,96.80
2019-02-21T08:28:45.337Z,96.70
2019-02-21T08:31:14.838Z,96.80
2019-02-21T08:33:58.720Z,96.80
2019-02-21T08:36:27.036Z,96.60
2019-02-21T08:38:56.401Z,96.50
2019-02-21T08:41:25.970Z,96.70
2019-02-21T08:43:57.437Z,96.70
2019-02-21T08:46:26.865Z,96.70
2019-02-21T08:48:56.844Z,96.60
2019-02-21T08:51:26.287Z,96.60
2019-02-21T08:53:55.707Z,96.60
2019-02-21T08:56:25.365Z,96.40
2019-02-21T08:58:54.787Z,96.40
2019-02-21T09:01:24.353Z,96.30
2019-02-21T09:04:09.897Z,96.20
2019-02-21T09:06:30.925Z,96.20
2019-02-21T09:09:00.381Z,96.40
2019-02-21T09:11:29.929Z,96.40
2019-02-21T09:14:03.013Z,96.50
2019-02-21T09:16:32.332Z,96.50
2019-02-21T09:19:01.709Z,96.60
2019-02-21T09:21:31.407Z,97.10
2019-02-21T09:24:00.845Z,97.20
2019-02-21T09:26:30.459Z,97.20
2019-02-21T09:28:59.990Z,97.10
2019-02-21T09:31:29.342Z,97.00
2019-02-21T09:33:58.796Z,96.90
2019-02-21T09:36:28.258Z,97.20
2019-02-21T09:38:57.775Z,97.20
2019-02-21T09:41:28.718Z,97.20
2019-02-21T09:43:58.334Z,97.10
2019-02-21T09:46:27.766Z,96.80
2019-02-21T09:48:57.262Z,96.70
2019-02-21T09:51:27.206Z,96.60
2019-02-21T09:53:56.893Z,96.70
2019-02-21T09:56:30.668Z,96.70
2019-02-21T09:58:58.693Z,96.50
2019-02-21T10:01:28.099Z,96.30
2019-02-21T10:03:57.768Z,96.30
2019-02-21T10:06:27.241Z,96.10
2019-02-21T10:08:56.691Z,96.10
2019-02-21T10:11:26.107Z,95.30
2019-02-21T10:13:55.627Z,95.40
2019-02-21T10:16:27.172Z,95.30
2019-02-21T10:18:57.418Z,95.40
2019-02-21T10:21:27.098Z,95.30
2019-02-21T10:23:56.851Z,95.00
2019-02-21T10:26:26.627Z,94.70
2019-02-21T10:28:56.085Z,94.40
2019-02-21T10:31:25.495Z,94.20
2019-02-21T10:33:54.821Z,93.90
2019-02-21T10:36:24.570Z,93.40
2019-02-21T10:38:53.958Z,93.50
2019-02-21T10:41:23.329Z,93.00
2019-02-21T10:43:52.979Z,92.60
2019-02-21T10:46:22.665Z,92.00
2019-02-21T10:48:52.070Z,88.80
2019-02-21T10:51:21.434Z,89.70
2019-02-21T10:53:51.143Z,89.50
2019-02-21T10:56:20.557Z,89.20
2019-02-21T10:58:49.914Z,87.70
2019-02-21T11:01:19.289Z,86.80
2019-02-21T11:03:48.736Z,86.10
2019-02-21T11:06:20.084Z,82.70
2019-02-21T11:08:49.687Z,83.40
2019-02-21T11:11:21.269Z,85.40
2019-02-21T11:13:51.857Z,86.20
2019-02-21T11:16:21.385Z,86.10
2019-02-21T11:18:51.038Z,85.60
2019-02-21T11:21:20.664Z,85.30
2019-02-21T11:23:50.045Z,85.30
2019-02-21T11:26:22.391Z,85.10
2019-02-21T11:28:51.997Z,83.90
2019-02-21T11:31:21.604Z,82.30
2019-02-21T11:33:51.142Z,83.10
2019-02-21T11:36:20.878Z,82.50
2019-02-21T11:38:50.547Z,81.90
2019-02-21T11:41:21.737Z,79.40
2019-02-21T11:43:51.184Z,78.70
2019-02-21T11:46:20.550Z,78.70
2019-02-21T11:48:50.000Z,78.30
2019-02-21T11:51:22.939Z,78.10
2019-02-21T11:53:52.585Z,78.90
2019-02-21T11:56:21.991Z,79.10
2019-02-21T11:58:51.384Z,77.10
2019-02-21T12:01:20.980Z,77.00
2019-02-21T12:03:50.724Z,76.20
2019-02-21T12:06:20.205Z,73.90
2019-02-21T12:08:49.636Z,72.20
2019-02-21T12:11:19.294Z,72.70
2019-02-21T12:13:48.860Z,72.00
2019-02-21T12:16:18.243Z,72.20
2019-02-21T12:18:48.201Z,72.30
2019-02-21T12:21:17.618Z,72.10
2019-02-21T12:23:47.612Z,71.50
2019-02-21T12:26:16.981Z,70.60
2019-02-21T12:28:46.869Z,69.70
2019-02-21T12:31:16.268Z,70.70
2019-02-21T12:33:45.640Z,70.60
2019-02-21T12:36:15.441Z,71.30
2019-02-21T12:38:45.012Z,71.00
2019-02-21T12:41:14.973Z,70.60
2019-02-21T12:43:44.320Z,70.20
2019-02-21T12:46:13.887Z,69.40
2019-02-21T12:48:43.422Z,69.50
2019-02-21T12:51:12.851Z,70.50
2019-02-21T12:53:42.197Z,71.10
2019-02-21T12:56:11.577Z,71.20
2019-02-21T12:58:41.253Z,71.50
2019-02-21T13:01:10.835Z,71.00
2019-02-21T13:03:40.806Z,70.60
2019-02-21T13:06:10.197Z,71.10
2019-02-21T13:08:39.560Z,71.30
2019-02-21T13:11:09.311Z,71.20
2019-02-21T13:13:39.124Z,71.80
2019-02-21T13:16:10.718Z,72.40
2019-02-21T13:18:40.221Z,72.60
2019-02-21T13:21:09.701Z,73.30
2019-02-21T13:23:43.444Z,73.80
2019-02-21T13:26:12.892Z,74.20
2019-02-21T13:28:42.413Z,74.10
2019-02-21T13:31:14.370Z,74.00
2019-02-21T13:33:43.839Z,73.70
2019-02-21T13:36:13.589Z,73.50
2019-02-21T13:38:43.009Z,73.70
2019-02-21T13:41:12.422Z,73.50
2019-02-21T13:43:42.013Z,72.50
2019-02-21T13:46:11.393Z,72.10
2019-02-21T13:48:41.278Z,72.30
2019-02-21T13:51:10.797Z,72.30
2019-02-21T13:53:40.381Z,72.30
2019-02-21T13:56:11.176Z,71.70
2019-02-21T13:58:40.911Z,71.40
2019-02-21T14:01:10.339Z,71.00
2019-02-21T14:03:39.889Z,71.00
2019-02-21T14:06:09.302Z,71.10
2019-02-21T14:08:38.887Z,71.10
2019-02-21T14:11:08.277Z,71.20
2019-02-21T14:13:37.643Z,71.60
2019-02-21T14:16:07.079Z,71.30
2019-02-21T14:18:36.984Z,70.80
2019-02-21T14:21:06.737Z,70.60
2019-02-21T14:23:36.523Z,70.80
2019-02-21T14:26:07.946Z,70.80
2019-02-21T14:28:37.592Z,70.70
2019-02-21T14:31:07.541Z,70.00
2019-02-21T14:33:37.254Z,70.00
2019-02-21T14:36:15.239Z,70.20
2019-02-21T14:38:38.029Z,70.40
2019-02-21T14:41:07.817Z,69.60
2019-02-21T14:43:37.208Z,69.70
2019-02-21T14:46:07.015Z,68.40
2019-02-21T14:48:36.609Z,67.20
2019-02-21T14:51:06.162Z,66.70
2019-02-21T14:53:35.773Z,66.10
2019-02-21T14:56:08.813Z,66.20
2019-02-21T14:58:38.403Z,65.70
2019-02-21T15:01:08.468Z,63.80
2019-02-21T15:03:38.521Z,63.60
2019-02-21T15:06:08.114Z,63.90
2019-02-21T15:08:37.896Z,64.50
2019-02-21T15:11:07.524Z,63.40
2019-02-21T15:13:37.187Z,63.80
2019-02-21T15:16:06.677Z,65.00
2019-02-21T15:18:36.046Z,64.00
2019-02-21T15:21:06.018Z,64.00
2019-02-21T15:23:37.092Z,64.20
2019-02-21T15:26:06.464Z,65.20
2019-02-21T15:28:36.018Z,65.30
2019-02-21T15:31:06.030Z,66.10
2019-02-21T15:33:35.641Z,66.50
2019-02-21T15:36:05.503Z,66.50
2019-02-21T15:38:39.974Z,65.50
2019-02-21T15:41:09.526Z,65.60
2019-02-21T15:43:39.222Z,65.60
2019-02-21T15:46:09.015Z,65.80
2019-02-21T15:48:38.957Z,65.40
2019-02-21T15:51:08.804Z,64.60
2019-02-21T15:53:38.753Z,64.30
2019-02-21T15:56:08.543Z,63.90
2019-02-21T15:58:38.070Z,64.20
2019-02-21T16:01:07.810Z,64.80
2019-02-21T16:03:37.459Z,65.30
2019-02-21T16:06:09.040Z,65.70
2019-02-21T16:08:38.599Z,66.00
2019-02-21T16:11:08.036Z,66.50
2019-02-21T16:13:37.608Z,66.90
2019-02-21T16:16:07.303Z,67.30
2019-02-21T16:18:36.836Z,67.50
2019-02-21T16:21:06.869Z,67.40
2019-02-21T16:23:36.488Z,67.90
2019-02-21T16:26:05.861Z,68.10
2019-02-21T16:28:35.486Z,68.20
2019-02-21T16:31:05.492Z,68.50
2019-02-21T16:33:35.053Z,68.90
2019-02-21T16:36:04.873Z,69.00
2019-02-21T16:38:34.649Z,69.50
2019-02-21T16:41:04.248Z,70.20
2019-02-21T16:43:33.977Z,70.20
2019-02-21T16:46:07.878Z,70.50
2019-02-21T16:48:35.643Z,70.70
2019-02-21T16:51:06.535Z,71.30
2019-02-21T16:53:36.175Z,71.00
2019-02-21T16:56:05.972Z,71.70
2019-02-21T16:58:35.794Z,71.60
2019-02-21T17:01:05.786Z,72.00
2019-02-21T17:03:35.395Z,72.20
2019-02-21T17:06:05.453Z,72.80
2019-02-21T17:08:35.547Z,73.40
2019-02-21T17:11:05.386Z,73.60
2019-02-21T17:13:35.507Z,74.10
2019-02-21T17:16:05.360Z,74.30
2019-02-21T17:18:35.409Z,73.80
2019-02-21T17:21:05.100Z,74.50
2019-02-21T17:23:35.076Z,74.40
2019-02-21T17:26:04.540Z,73.90
2019-02-21T17:28:34.706Z,74.20
2019-02-21T17:31:07.534Z,74.00
2019-02-21T17:33:37.180Z,75.10
2019-02-21T17:36:06.853Z,75.00
2019-02-21T17:38:36.494Z,75.70
2019-02-21T17:41:06.410Z,75.80
2019-02-21T17:43:36.473Z,75.90
2019-02-21T17:46:06.276Z,76.20
2019-02-21T17:48:36.183Z,76.70
2019-02-21T17:51:06.381Z,76.10
2019-02-21T17:53:36.189Z,75.90
2019-02-21T17:56:06.106Z,76.40
2019-02-21T17:58:36.050Z,76.50
2019-02-21T18:01:06.470Z,77.30
2019-02-21T18:03:36.665Z,77.50
2019-02-21T18:06:07.130Z,76.90
2019-02-21T18:08:38.462Z,76.40
2019-02-21T18:11:12.447Z,78.50
2019-02-21T18:13:42.005Z,78.60
2019-02-21T18:16:12.703Z,78.70
2019-02-21T18:18:43.128Z,78.70
2019-02-21T18:21:13.791Z,78.50
2019-02-21T18:23:44.007Z,78.90
2019-02-21T18:26:18.002Z,78.70
2019-02-21T18:28:48.755Z,79.30
2019-02-21T18:31:19.472Z,79.40
2019-02-21T18:33:49.918Z,79.60
2019-02-21T18:36:20.340Z,79.90
2019-02-21T18:38:50.995Z,79.70
2019-02-21T18:41:21.537Z,80.10
2019-02-21T18:43:52.189Z,80.10
2019-02-21T22:49:54.915Z,90.30
2019-02-21T22:52:24.339Z,90.20
2019-02-21T22:54:54.370Z,90.70
2019-02-21T22:57:23.902Z,91.00
2019-02-21T22:59:53.512Z,91.30
2019-02-21T23:04:07.185Z,91.30
2019-02-21T23:11:54.397Z,91.80
2019-02-21T23:14:24.433Z,92.00
2019-02-21T23:16:54.428Z,91.90
2019-02-21T23:19:58.173Z,91.70
2019-02-21T23:22:28.797Z,91.80
2019-02-21T23:25:15.032Z,91.70
2019-02-21T23:29:19.061Z,92.00
2019-02-21T23:31:48.791Z,92.10
2019-02-21T23:42:44.153Z,97.70
